Time;durP1;ratioP1;P1;durP2;ratioP2;P2;SDS_P1;SDS_P2;PMS_P1;PMS_P2;Temp;Humidity;BMP_temperature;BMP_pressure;BME280_temperature;BME280_humidity;BME280_pressure;Samples;Min_cycle;Max_cycle;Signal;HPM_P1;HPM_P2
2022/08/02 00:00:06;;;;;;;23.87;19.93;;;;;;;;;;760615;186;631527;-54
2022/08/02 00:02:31;;;;;;;22.43;19.83;;;;;;;;;;755500;186;622962;-54
2022/08/02 00:04:57;;;;;;;22.33;19.73;;;;;;;;;;756651;187;637290;-54
2022/08/02 00:07:23;;;;;;;28.23;21.83;;;;;;;;;;755455;187;617255;-54
2022/08/02 00:09:49;;;;;;;23.53;21.13;;;;;;;;;;760178;186;630825;-54
2022/08/02 00:12:15;;;;;;;24.30;21.83;;;;;;;;;;755140;186;615560;-56
2022/08/02 00:14:40;;;;;;;23.40;20.80;;;;;;;;;;758232;186;620764;-54
2022/08/02 00:17:06;;;;;;;24.80;22.20;;;;;;;;;;760032;186;632534;-54
2022/08/02 00:19:32;;;;;;;22.43;20.13;;;;;;;;;;755817;186;619348;-54
2022/08/02 00:21:58;;;;;;;27.30;22.00;;;;;;;;;;756313;186;631544;-56
2022/08/02 00:24:24;;;;;;;25.13;22.53;;;;;;;;;;759232;187;617725;-56
2022/08/02 00:26:50;;;;;;;26.27;22.73;;;;;;;;;;757324;186;624408;-56
2022/08/02 00:29:16;;;;;;;62.30;25.40;;;;;;;;;;756446;186;623872;-54
2022/08/02 00:31:41;;;;;;;57.03;24.97;;;;;;;;;;755009;187;627405;-55
2022/08/02 00:34:07;;;;;;;36.40;25.43;;;;;;;;;;760076;186;620610;-55
2022/08/02 00:36:33;;;;;;;42.03;26.30;;;;;;;;;;754371;187;627292;-54
2022/08/02 00:38:59;;;;;;;60.40;23.97;;;;;;;;;;754833;184;634138;-55
2022/08/02 00:41:25;;;;;;;83.90;25.00;;;;;;;;;;760940;187;628757;-54
2022/08/02 00:43:51;;;;;;;82.97;24.87;;;;;;;;;;753186;187;619186;-55
2022/08/02 00:46:16;;;;;;;84.87;25.90;;;;;;;;;;755014;186;614872;-56
2022/08/02 00:48:42;;;;;;;81.23;25.17;;;;;;;;;;759709;187;629044;-55
2022/08/02 00:51:08;;;;;;;76.23;25.00;;;;;;;;;;755460;186;623905;-56
2022/08/02 00:53:34;;;;;;;52.03;23.90;;;;;;;;;;755354;186;633776;-55
2022/08/02 00:56:00;;;;;;;34.43;23.73;;;;;;;;;;756927;186;630130;-55
2022/08/02 00:58:26;;;;;;;27.47;24.50;;;;;;;;;;757251;185;631738;-55
2022/08/02 01:00:51;;;;;;;71.33;26.50;;;;;;;;;;757401;186;628294;-56
2022/08/02 01:03:17;;;;;;;24.97;22.30;;;;;;;;;;758744;186;615716;-55
2022/08/02 01:05:43;;;;;;;24.30;21.80;;;;;;;;;;760343;186;621448;-55
2022/08/02 01:08:09;;;;;;;26.93;24.10;;;;;;;;;;757715;186;625555;-55
2022/08/02 01:10:35;;;;;;;28.33;22.50;;;;;;;;;;757610;186;625708;-55
2022/08/02 01:13:01;;;;;;;24.50;22.13;;;;;;;;;;760609;186;628477;-55
2022/08/02 01:15:27;;;;;;;22.70;20.30;;;;;;;;;;757890;186;619385;-55
2022/08/02 01:17:55;;;;;;;25.40;21.77;;;;;;;;;;757408;186;629202;-55
2022/08/02 01:20:22;;;;;;;22.10;20.00;;;;;;;;;;754797;187;620162;-56
2022/08/02 01:23:06;;;;;;;22.07;19.97;;;;;;;;;;756132;186;631206;-56
2022/08/02 01:25:34;;;;;;;22.20;20.00;;;;;;;;;;756463;186;617077;-54
2022/08/02 01:28:01;;;;;;;21.43;19.33;;;;;;;;;;754013;187;626410;-55
2022/08/02 01:30:26;;;;;;;30.00;18.57;;;;;;;;;;757342;186;644089;-55
2022/08/02 01:32:53;;;;;;;20.10;16.90;;;;;;;;;;758966;186;624101;-56
2022/08/02 01:35:19;;;;;;;21.87;18.03;;;;;;;;;;756128;186;621361;-55
2022/08/02 01:37:49;;;;;;;36.93;19.20;;;;;;;;;;754399;186;629210;-55
2022/08/02 01:40:15;;;;;;;34.73;17.73;;;;;;;;;;757435;186;615258;-55
2022/08/02 01:42:41;;;;;;;35.43;17.83;;;;;;;;;;759873;187;626840;-55
2022/08/02 01:45:08;;;;;;;25.60;18.20;;;;;;;;;;754317;187;629586;-55
2022/08/02 01:47:34;;;;;;;19.87;17.07;;;;;;;;;;755391;186;617957;-56
2022/08/02 01:49:59;;;;;;;46.00;20.87;;;;;;;;;;759910;187;628896;-55
2022/08/02 01:52:25;;;;;;;33.23;18.37;;;;;;;;;;754039;186;752519;-55
2022/08/02 01:54:52;;;;;;;31.80;18.10;;;;;;;;;;754389;187;620969;-56
2022/08/02 01:57:18;;;;;;;51.40;19.07;;;;;;;;;;756374;186;617393;-56
2022/08/02 01:59:43;;;;;;;50.93;18.73;;;;;;;;;;758004;185;629018;-57
2022/08/02 02:02:09;;;;;;;33.13;18.20;;;;;;;;;;755561;187;625332;-55
2022/08/02 02:04:35;;;;;;;33.87;17.57;;;;;;;;;;756714;186;623734;-56
2022/08/02 02:07:01;;;;;;;28.87;18.10;;;;;;;;;;758379;186;617150;-59
2022/08/02 02:09:28;;;;;;;50.30;15.57;;;;;;;;;;756593;185;633993;-56
2022/08/02 02:11:53;;;;;;;34.87;15.63;;;;;;;;;;759397;186;627837;-56
2022/08/02 02:14:19;;;;;;;24.00;15.90;;;;;;;;;;760962;186;627561;-55
2022/08/02 02:16:44;;;;;;;52.97;18.67;;;;;;;;;;758522;186;619299;-56
2022/08/02 02:19:10;;;;;;;36.83;15.70;;;;;;;;;;757788;186;628251;-55
2022/08/02 02:21:37;;;;;;;42.08;15.75;;;;;;;;;;758508;186;623481;-57
2022/08/02 02:24:03;;;;;;;19.60;15.80;;;;;;;;;;756166;186;623694;-55
2022/08/02 02:26:28;;;;;;;22.70;14.43;;;;;;;;;;755759;186;642128;-57
2022/08/02 02:28:54;;;;;;;19.53;14.17;;;;;;;;;;756023;186;619052;-56
2022/08/02 02:31:20;;;;;;;30.80;14.80;;;;;;;;;;761492;186;608198;-55
2022/08/02 02:33:46;;;;;;;18.97;14.90;;;;;;;;;;757982;186;622819;-56
2022/08/02 02:36:12;;;;;;;18.50;14.03;;;;;;;;;;756799;186;625294;-55
2022/08/02 02:38:38;;;;;;;16.10;13.07;;;;;;;;;;759359;186;631412;-56
2022/08/02 02:41:03;;;;;;;83.60;16.27;;;;;;;;;;756013;187;623051;-55
2022/08/02 02:43:30;;;;;;;13.73;11.40;;;;;;;;;;756918;187;618956;-55
2022/08/02 02:45:55;;;;;;;19.00;12.30;;;;;;;;;;759419;186;624469;-55
2022/08/02 02:48:21;;;;;;;19.13;15.03;;;;;;;;;;754895;184;631951;-56
2022/08/02 02:50:47;;;;;;;26.80;13.10;;;;;;;;;;756125;187;621337;-55
2022/08/02 02:53:13;;;;;;;25.33;13.23;;;;;;;;;;756708;184;625290;-55
2022/08/02 02:55:39;;;;;;;18.30;13.80;;;;;;;;;;758745;187;612922;-55
2022/08/02 02:58:04;;;;;;;13.50;12.10;;;;;;;;;;750041;187;624026;-56
2022/08/02 03:03:02;;;;;;;14.10;12.83;;;;;;;;;;757878;186;616420;-55
2022/08/02 03:05:28;;;;;;;14.20;12.80;;;;;;;;;;754100;186;627022;-55
2022/08/02 03:07:54;;;;;;;17.73;12.23;;;;;;;;;;754013;187;617618;-56
2022/08/02 03:10:19;;;;;;;14.40;12.77;;;;;;;;;;756998;187;623777;-55
2022/08/02 03:12:45;;;;;;;15.47;14.00;;;;;;;;;;760799;187;647268;-55
2022/08/02 03:15:11;;;;;;;14.40;13.10;;;;;;;;;;755239;186;642434;-56
2022/08/02 03:17:38;;;;;;;13.43;12.03;;;;;;;;;;756699;186;625099;-56
2022/08/02 03:20:04;;;;;;;12.93;11.63;;;;;;;;;;758815;186;617142;-55
2022/08/02 03:22:30;;;;;;;16.03;11.63;;;;;;;;;;759388;184;619124;-56
2022/08/02 03:24:56;;;;;;;13.50;12.23;;;;;;;;;;757271;186;626727;-56
2022/08/02 03:27:21;;;;;;;18.63;13.17;;;;;;;;;;762978;185;621869;-56
2022/08/02 03:29:47;;;;;;;14.43;12.93;;;;;;;;;;758956;183;629536;-55
2022/08/02 03:32:13;;;;;;;12.87;11.57;;;;;;;;;;755329;186;626232;-56
2022/08/02 03:34:39;;;;;;;16.03;13.13;;;;;;;;;;757700;186;628678;-55
2022/08/02 03:37:05;;;;;;;13.37;12.07;;;;;;;;;;757063;186;624854;-54
2022/08/02 03:39:31;;;;;;;17.47;15.23;;;;;;;;;;753308;186;629766;-56
2022/08/02 03:41:57;;;;;;;28.80;14.47;;;;;;;;;;755207;186;626002;-56
2022/08/02 03:44:22;;;;;;;15.67;14.17;;;;;;;;;;759536;186;616341;-55
2022/08/02 03:46:48;;;;;;;23.83;13.23;;;;;;;;;;757219;187;618985;-55
2022/08/02 03:49:15;;;;;;;13.20;12.00;;;;;;;;;;758327;186;619300;-56
2022/08/02 03:51:40;;;;;;;22.20;13.33;;;;;;;;;;758142;187;619413;-57
2022/08/02 03:54:06;;;;;;;12.53;11.20;;;;;;;;;;757921;187;630042;-56
2022/08/02 03:56:32;;;;;;;23.57;14.57;;;;;;;;;;757948;187;620529;-56
2022/08/02 03:59:03;;;;;;;16.40;12.27;;;;;;;;;;754856;186;616317;-56
2022/08/02 04:01:29;;;;;;;17.23;11.17;;;;;;;;;;761787;184;631649;-57
2022/08/02 04:03:55;;;;;;;13.43;11.30;;;;;;;;;;757161;186;625438;-56
2022/08/02 04:06:21;;;;;;;14.40;13.00;;;;;;;;;;754544;187;625764;-57
2022/08/02 04:08:47;;;;;;;16.87;13.77;;;;;;;;;;758725;187;617586;-55
2022/08/02 04:13:44;;;;;;;14.23;12.00;;;;;;;;;;756019;186;630168;-55
2022/08/02 04:16:11;;;;;;;13.80;12.40;;;;;;;;;;756705;186;617407;-56
2022/08/02 04:18:36;;;;;;;14.93;11.10;;;;;;;;;;759681;186;629353;-56
2022/08/02 04:21:02;;;;;;;14.27;12.87;;;;;;;;;;755702;186;635866;-55
2022/08/02 04:23:28;;;;;;;12.77;11.57;;;;;;;;;;755995;186;629904;-57
2022/08/02 04:25:54;;;;;;;13.43;11.90;;;;;;;;;;760557;186;616835;-56
2022/08/02 04:28:20;;;;;;;15.37;13.03;;;;;;;;;;756012;187;624909;-57
2022/08/02 04:30:46;;;;;;;14.50;12.80;;;;;;;;;;757619;186;626079;-56
2022/08/02 04:33:12;;;;;;;16.80;14.20;;;;;;;;;;760889;185;629454;-56
2022/08/02 04:35:38;;;;;;;16.00;14.30;;;;;;;;;;759022;184;624290;-56
2022/08/02 04:38:04;;;;;;;20.20;15.47;;;;;;;;;;758197;186;623297;-56
2022/08/02 04:40:30;;;;;;;17.53;15.03;;;;;;;;;;756961;186;630692;-56
2022/08/02 04:42:56;;;;;;;18.03;16.23;;;;;;;;;;760251;186;629286;-56
2022/08/02 04:45:21;;;;;;;22.87;16.87;;;;;;;;;;755515;186;618879;-55
2022/08/02 04:47:47;;;;;;;25.37;18.90;;;;;;;;;;757337;186;633577;-56
2022/08/02 04:50:13;;;;;;;24.40;21.10;;;;;;;;;;760614;186;622856;-57
2022/08/02 04:52:39;;;;;;;30.77;22.13;;;;;;;;;;756789;186;632444;-56
2022/08/02 04:55:05;;;;;;;33.40;25.50;;;;;;;;;;755849;183;638207;-56
2022/08/02 05:00:03;;;;;;;38.23;25.97;;;;;;;;;;761458;186;627577;-57
2022/08/02 05:02:28;;;;;;;38.40;28.77;;;;;;;;;;754577;186;631820;-56
2022/08/02 05:04:54;;;;;;;35.53;27.23;;;;;;;;;;756232;186;626051;-57
2022/08/02 05:07:20;;;;;;;40.37;28.73;;;;;;;;;;760096;186;627078;-56
2022/08/02 05:09:46;;;;;;;46.60;29.53;;;;;;;;;;757566;186;626952;-56
2022/08/02 05:12:12;;;;;;;39.67;29.90;;;;;;;;;;754494;186;623679;-56
2022/08/02 05:14:38;;;;;;;38.40;31.20;;;;;;;;;;759936;186;616160;-56
2022/08/02 05:17:04;;;;;;;37.20;27.70;;;;;;;;;;755346;186;614808;-58
2022/08/02 05:19:29;;;;;;;42.30;29.63;;;;;;;;;;757516;186;626298;-57
2022/08/02 05:21:55;;;;;;;41.50;31.00;;;;;;;;;;756299;186;632870;-57
2022/08/02 05:24:21;;;;;;;35.23;28.57;;;;;;;;;;759808;184;628454;-59
2022/08/02 05:26:47;;;;;;;36.50;30.30;;;;;;;;;;756387;186;625328;-56
2022/08/02 05:29:13;;;;;;;33.03;29.33;;;;;;;;;;755150;185;628474;-57
2022/08/02 05:31:39;;;;;;;34.53;26.73;;;;;;;;;;758823;186;615847;-57
2022/08/02 05:34:04;;;;;;;31.50;26.77;;;;;;;;;;756967;186;630040;-56
2022/08/02 05:36:30;;;;;;;29.50;25.07;;;;;;;;;;755466;186;628324;-56
2022/08/02 05:38:56;;;;;;;25.07;22.43;;;;;;;;;;759470;186;623926;-56
2022/08/02 05:41:22;;;;;;;22.77;20.37;;;;;;;;;;755930;186;628985;-56
2022/08/02 05:43:48;;;;;;;26.13;17.63;;;;;;;;;;756287;184;622835;-57
2022/08/02 05:46:14;;;;;;;19.60;17.70;;;;;;;;;;759368;185;623413;-57
2022/08/02 05:48:39;;;;;;;17.40;15.00;;;;;;;;;;759306;184;620389;-56
2022/08/02 05:51:05;;;;;;;16.40;14.50;;;;;;;;;;758172;186;632934;-56
2022/08/02 05:53:35;;;;;;;16.30;14.60;;;;;;;;;;757870;186;638977;-57
2022/08/02 05:56:02;;;;;;;15.60;12.83;;;;;;;;;;759560;186;706690;-57
2022/08/02 05:58:28;;;;;;;14.47;13.00;;;;;;;;;;757161;186;619586;-56
2022/08/02 06:00:53;;;;;;;12.23;10.90;;;;;;;;;;757171;186;619504;-56
2022/08/02 06:03:21;;;;;;;14.70;11.70;;;;;;;;;;760560;184;624664;-57
2022/08/02 06:05:49;;;;;;;12.37;11.13;;;;;;;;;;759638;186;617171;-56
2022/08/02 06:08:14;;;;;;;14.00;12.50;;;;;;;;;;756083;186;628799;-57
2022/08/02 06:10:40;;;;;;;15.13;10.97;;;;;;;;;;756094;186;623501;-57
2022/08/02 06:13:06;;;;;;;15.20;10.77;;;;;;;;;;759499;186;623036;-57
2022/08/02 06:15:32;;;;;;;14.60;11.27;;;;;;;;;;756892;186;626934;-57
2022/08/02 06:17:58;;;;;;;11.90;10.70;;;;;;;;;;756101;186;623366;-57
2022/08/02 06:20:24;;;;;;;12.80;11.17;;;;;;;;;;760170;186;613343;-56
2022/08/02 06:22:50;;;;;;;10.67;9.67;;;;;;;;;;755877;187;619284;-55
2022/08/02 06:25:15;;;;;;;10.53;9.10;;;;;;;;;;754068;187;623704;-54
2022/08/02 06:27:41;;;;;;;10.20;9.10;;;;;;;;;;756874;187;624410;-54
2022/08/02 06:30:07;;;;;;;10.33;8.63;;;;;;;;;;763157;184;623503;-54
2022/08/02 06:32:33;;;;;;;10.13;8.10;;;;;;;;;;756239;186;633110;-54
2022/08/02 06:34:59;;;;;;;10.13;7.77;;;;;;;;;;755639;186;628612;-54
2022/08/02 06:37:27;;;;;;;8.17;7.23;;;;;;;;;;759158;186;630577;-54
2022/08/02 06:40:04;;;;;;;9.23;7.27;;;;;;;;;;755039;186;645103;-54
2022/08/02 06:42:29;;;;;;;13.93;7.80;;;;;;;;;;755547;186;648645;-54
2022/08/02 06:44:55;;;;;;;9.40;7.60;;;;;;;;;;756289;184;629481;-54
2022/08/02 06:47:20;;;;;;;8.53;7.67;;;;;;;;;;760533;186;629249;-54
2022/08/02 06:49:46;;;;;;;12.03;8.07;;;;;;;;;;754649;186;650660;-54
2022/08/02 06:52:12;;;;;;;11.43;7.13;;;;;;;;;;756440;186;621797;-54
2022/08/02 06:54:40;;;;;;;7.23;6.50;;;;;;;;;;758894;186;625865;-54
2022/08/02 06:57:04;;;;;;;6.30;5.67;;;;;;;;;;757606;185;636988;-55
2022/08/02 06:59:30;;;;;;;7.53;5.30;;;;;;;;;;758948;186;629043;-54
2022/08/02 07:01:58;;;;;;;7.07;6.20;;;;;;;;;;757976;186;613538;-54
2022/08/02 07:04:21;;;;;;;8.50;4.93;;;;;;;;;;758479;184;628711;-54
2022/08/02 07:06:48;;;;;;;6.40;4.57;;;;;;;;;;756733;186;635770;-54
2022/08/02 07:09:13;;;;;;;8.77;4.30;;;;;;;;;;757046;184;631574;-55
2022/08/02 07:11:39;;;;;;;4.43;4.03;;;;;;;;;;760063;186;629042;-54
2022/08/02 07:14:05;;;;;;;5.80;4.43;;;;;;;;;;756613;186;620722;-54
2022/08/02 07:16:31;;;;;;;5.60;3.63;;;;;;;;;;756530;187;635265;-55
2022/08/02 07:18:57;;;;;;;5.37;4.00;;;;;;;;;;760051;186;627611;-54
2022/08/02 07:21:23;;;;;;;5.10;3.73;;;;;;;;;;756448;186;628470;-54
2022/08/02 07:23:48;;;;;;;12.33;3.97;;;;;;;;;;756659;186;643616;-54
2022/08/02 07:26:14;;;;;;;5.30;4.20;;;;;;;;;;760545;186;617294;-53
2022/08/02 07:28:40;;;;;;;4.47;3.40;;;;;;;;;;755367;186;622898;-54
2022/08/02 07:31:06;;;;;;;5.67;3.73;;;;;;;;;;755844;187;630044;-55
2022/08/02 07:33:31;;;;;;;4.50;3.10;;;;;;;;;;756737;186;620205;-55
2022/08/02 07:35:57;;;;;;;4.63;3.37;;;;;;;;;;759434;186;629830;-52
2022/08/02 07:38:23;;;;;;;5.40;3.50;;;;;;;;;;754923;184;633161;-54
2022/08/02 07:40:49;;;;;;;22.23;5.07;;;;;;;;;;755931;186;624394;-54
2022/08/02 07:43:15;;;;;;;9.13;4.77;;;;;;;;;;759634;186;624324;-53
2022/08/02 07:45:41;;;;;;;4.20;3.60;;;;;;;;;;755808;186;628879;-53
2022/08/02 07:48:07;;;;;;;5.70;4.17;;;;;;;;;;756721;186;627762;-54
2022/08/02 07:50:32;;;;;;;4.07;3.67;;;;;;;;;;759360;186;622193;-53
2022/08/02 07:52:58;;;;;;;9.00;4.70;;;;;;;;;;756462;186;624352;-54
2022/08/02 07:55:24;;;;;;;5.37;4.57;;;;;;;;;;755436;187;631037;-54
2022/08/02 07:57:51;;;;;;;6.50;4.70;;;;;;;;;;754767;186;633754;-54
2022/08/02 08:00:16;;;;;;;6.00;5.30;;;;;;;;;;754768;187;632899;-54
2022/08/02 08:02:43;;;;;;;6.10;5.50;;;;;;;;;;756369;186;629002;-54
2022/08/02 08:05:09;;;;;;;7.60;6.17;;;;;;;;;;755132;186;621056;-54
2022/08/02 08:07:35;;;;;;;8.73;5.73;;;;;;;;;;760933;185;614389;-54
2022/08/02 08:10:01;;;;;;;6.00;5.40;;;;;;;;;;757911;186;629940;-54
2022/08/02 08:12:27;;;;;;;12.57;6.47;;;;;;;;;;757974;186;629455;-54
2022/08/02 08:14:52;;;;;;;6.50;5.90;;;;;;;;;;761008;183;627730;-54
2022/08/02 08:17:18;;;;;;;8.13;6.70;;;;;;;;;;756029;186;634887;-53
2022/08/02 08:19:44;;;;;;;8.97;8.07;;;;;;;;;;756724;186;627564;-53
2022/08/02 08:22:10;;;;;;;7.70;7.00;;;;;;;;;;755879;186;626238;-53
2022/08/02 08:24:37;;;;;;;6.93;6.23;;;;;;;;;;759053;186;631284;-54
2022/08/02 08:27:02;;;;;;;6.50;5.90;;;;;;;;;;755704;186;628031;-53
2022/08/02 08:29:27;;;;;;;9.00;7.70;;;;;;;;;;756400;186;620577;-54
2022/08/02 08:31:53;;;;;;;11.80;8.13;;;;;;;;;;759706;186;616163;-54
2022/08/02 08:34:19;;;;;;;8.30;7.40;;;;;;;;;;756792;186;631458;-54
2022/08/02 08:36:45;;;;;;;9.40;7.77;;;;;;;;;;757317;186;621567;-54
2022/08/02 08:39:11;;;;;;;8.50;7.70;;;;;;;;;;760109;186;624341;-54
2022/08/02 08:41:37;;;;;;;7.97;7.23;;;;;;;;;;756571;186;630433;-53
2022/08/02 08:44:03;;;;;;;7.27;6.10;;;;;;;;;;756504;184;627927;-53
2022/08/02 08:46:28;;;;;;;7.87;5.73;;;;;;;;;;756153;186;613847;-54
2022/08/02 08:48:58;;;;;;;9.17;6.90;;;;;;;;;;762508;184;623232;-53
2022/08/02 08:51:24;;;;;;;15.13;6.90;;;;;;;;;;755695;186;621997;-53
2022/08/02 08:53:50;;;;;;;7.47;5.77;;;;;;;;;;755934;186;626059;-54
2022/08/02 08:56:15;;;;;;;7.23;6.20;;;;;;;;;;758111;186;621883;-54
2022/08/02 08:58:41;;;;;;;8.60;6.20;;;;;;;;;;755937;186;617906;-53
2022/08/02 09:01:07;;;;;;;6.83;6.10;;;;;;;;;;755462;186;624265;-54
2022/08/02 09:03:33;;;;;;;7.10;6.40;;;;;;;;;;760896;186;627236;-54
2022/08/02 09:05:59;;;;;;;9.27;7.20;;;;;;;;;;756381;186;630855;-53
2022/08/02 09:08:25;;;;;;;10.43;7.47;;;;;;;;;;756188;187;630760;-54
2022/08/02 09:10:51;;;;;;;8.67;7.73;;;;;;;;;;756007;187;619027;-54
2022/08/02 09:13:19;;;;;;;8.30;7.20;;;;;;;;;;758780;187;624508;-54
2022/08/02 09:15:45;;;;;;;36.03;23.37;;;;;;;;;;757710;186;626261;-54
2022/08/02 09:18:11;;;;;;;6.83;6.23;;;;;;;;;;754935;187;633606;-54
2022/08/02 09:20:42;;;;;;;10.80;8.30;;;;;;;;;;760830;184;623515;-53
2022/08/02 09:23:08;;;;;;;7.10;6.30;;;;;;;;;;758948;186;628957;-54
2022/08/02 09:25:34;;;;;;;8.70;7.30;;;;;;;;;;757814;186;632311;-54
2022/08/02 09:28:00;;;;;;;7.80;7.10;;;;;;;;;;755198;186;635039;-54
2022/08/02 09:30:26;;;;;;;8.77;7.83;;;;;;;;;;761828;186;637445;-53
2022/08/02 09:32:52;;;;;;;14.10;12.60;;;;;;;;;;757397;186;624981;-54
2022/08/02 09:35:23;;;;;;;8.30;6.90;;;;;;;;;;757270;185;624552;-53
2022/08/02 09:37:49;;;;;;;8.27;7.47;;;;;;;;;;760064;186;618886;-54
2022/08/02 09:40:15;;;;;;;6.73;6.13;;;;;;;;;;757250;186;630623;-54
2022/08/02 09:42:56;;;;;;;10.37;8.40;;;;;;;;;;755810;187;642410;-54
2022/08/02 09:45:22;;;;;;;6.77;6.07;;;;;;;;;;757330;186;630454;-54
2022/08/02 09:47:47;;;;;;;6.73;6.13;;;;;;;;;;756987;186;653008;-54
2022/08/02 09:50:13;;;;;;;6.57;5.80;;;;;;;;;;758453;187;638738;-54
2022/08/02 09:52:39;;;;;;;11.47;7.20;;;;;;;;;;755958;186;629397;-53
2022/08/02 09:55:05;;;;;;;8.57;7.70;;;;;;;;;;755111;187;626629;-54
2022/08/02 09:57:32;;;;;;;5.50;5.00;;;;;;;;;;759331;186;624344;-54
2022/08/02 09:59:57;;;;;;;8.60;7.13;;;;;;;;;;756537;186;616833;-53
2022/08/02 10:02:22;;;;;;;7.63;6.50;;;;;;;;;;754403;186;633477;-54
2022/08/02 10:04:48;;;;;;;17.10;12.83;;;;;;;;;;760575;186;625900;-54
2022/08/02 10:07:14;;;;;;;6.93;6.23;;;;;;;;;;754229;187;627513;-54
2022/08/02 10:09:40;;;;;;;5.60;5.10;;;;;;;;;;756500;186;617350;-54
2022/08/02 10:12:06;;;;;;;6.60;4.63;;;;;;;;;;756050;186;633961;-55
2022/08/02 10:14:34;;;;;;;4.70;4.20;;;;;;;;;;756638;184;628808;-53
2022/08/02 10:16:59;;;;;;;5.57;4.97;;;;;;;;;;754223;186;627922;-53
2022/08/02 10:19:24;;;;;;;4.37;3.77;;;;;;;;;;754511;187;625407;-54
2022/08/02 10:21:55;;;;;;;3.90;3.50;;;;;;;;;;759463;186;626391;-53
2022/08/02 10:24:21;;;;;;;5.17;3.60;;;;;;;;;;755632;186;633451;-55
2022/08/02 10:26:47;;;;;;;11.03;7.57;;;;;;;;;;755766;186;628089;-54
2022/08/02 10:29:15;;;;;;;11.10;8.93;;;;;;;;;;757818;186;631498;-55
2022/08/02 10:31:41;;;;;;;8.80;4.90;;;;;;;;;;756650;186;620066;-54
2022/08/02 10:34:06;;;;;;;6.60;5.90;;;;;;;;;;757482;186;625354;-55
2022/08/02 10:36:32;;;;;;;6.60;4.90;;;;;;;;;;756573;186;627526;-53
2022/08/02 10:38:58;;;;;;;5.50;3.90;;;;;;;;;;760817;186;633704;-53
2022/08/02 10:41:30;;;;;;;9.63;7.83;;;;;;;;;;756571;186;635624;-54
2022/08/02 10:43:56;;;;;;;5.80;4.93;;;;;;;;;;757179;186;632141;-54
2022/08/02 10:46:22;;;;;;;5.57;3.90;;;;;;;;;;757531;186;626336;-54
2022/08/02 10:48:53;;;;;;;6.23;4.17;;;;;;;;;;756176;183;624869;-54
2022/08/02 10:51:19;;;;;;;6.20;5.00;;;;;;;;;;757296;186;622695;-54
2022/08/02 10:53:45;;;;;;;8.93;8.03;;;;;;;;;;757814;186;621693;-54
2022/08/02 10:56:11;;;;;;;5.97;4.70;;;;;;;;;;757594;186;632746;-54
2022/08/02 10:58:37;;;;;;;6.27;4.43;;;;;;;;;;758086;186;629529;-54
2022/08/02 11:01:03;;;;;;;4.70;4.20;;;;;;;;;;755885;186;619850;-54
2022/08/02 11:03:33;;;;;;;5.20;3.53;;;;;;;;;;756996;186;631831;-54
2022/08/02 11:06:02;;;;;;;5.70;4.03;;;;;;;;;;758544;184;618615;-54
2022/08/02 11:08:28;;;;;;;7.60;6.17;;;;;;;;;;754402;183;622500;-53
2022/08/02 11:10:57;;;;;;;6.63;5.30;;;;;;;;;;756133;186;623792;-54
2022/08/02 11:13:25;;;;;;;8.10;5.10;;;;;;;;;;756335;186;624095;-54
2022/08/02 11:15:49;;;;;;;7.30;5.23;;;;;;;;;;753995;186;626165;-54
2022/08/02 11:18:15;;;;;;;6.00;5.40;;;;;;;;;;755403;186;625458;-54
2022/08/02 11:20:41;;;;;;;12.33;8.10;;;;;;;;;;754681;186;633274;-54
2022/08/02 11:23:13;;;;;;;7.00;5.70;;;;;;;;;;760439;186;616306;-54
2022/08/02 11:25:39;;;;;;;9.87;6.80;;;;;;;;;;756299;186;624952;-54
2022/08/02 11:28:07;;;;;;;6.93;4.90;;;;;;;;;;756402;186;632128;-53
2022/08/02 11:30:32;;;;;;;9.03;5.50;;;;;;;;;;755625;186;629312;-54
2022/08/02 11:32:58;;;;;;;5.20;4.43;;;;;;;;;;759850;184;630615;-53
2022/08/02 11:35:32;;;;;;;4.70;4.20;;;;;;;;;;756517;186;625847;-54
2022/08/02 11:37:58;;;;;;;5.00;4.30;;;;;;;;;;755707;186;634599;-54
2022/08/02 11:40:23;;;;;;;4.73;4.20;;;;;;;;;;757368;186;643388;-54
2022/08/02 11:42:49;;;;;;;7.43;4.80;;;;;;;;;;755245;184;634139;-56
2022/08/02 11:48:08;;;;;;;5.53;4.27;;;;;;;;;;716263;180;641290;-54
2022/08/02 11:50:33;;;;;;;7.23;4.10;;;;;;;;;;757277;186;639485;-54
2022/08/02 11:52:59;;;;;;;5.30;4.80;;;;;;;;;;771592;181;625382;-54
2022/08/02 11:55:25;;;;;;;5.10;4.60;;;;;;;;;;775389;179;629304;-54
2022/08/02 11:57:51;;;;;;;4.90;4.40;;;;;;;;;;779749;176;706172;-54
2022/08/02 12:00:17;;;;;;;4.40;3.70;;;;;;;;;;777421;178;631591;-54
2022/08/02 12:02:45;;;;;;;4.77;4.27;;;;;;;;;;790518;177;627121;-54
2022/08/02 12:05:10;;;;;;;6.60;4.70;;;;;;;;;;781777;179;627942;-55
2022/08/02 12:07:36;;;;;;;6.60;4.63;;;;;;;;;;771436;180;629810;-54
2022/08/02 12:10:04;;;;;;;4.20;3.77;;;;;;;;;;780008;181;617136;-53
2022/08/02 12:12:30;;;;;;;5.07;4.57;;;;;;;;;;768675;181;626298;-53
2022/08/02 12:14:56;;;;;;;5.50;4.63;;;;;;;;;;769990;181;617170;-53
2022/08/02 12:19:56;;;;;;;5.63;4.43;;;;;;;;;;777965;179;626334;-54
2022/08/02 12:22:23;;;;;;;5.03;4.50;;;;;;;;;;770019;182;626027;-54
2022/08/02 12:24:49;;;;;;;12.33;8.13;;;;;;;;;;776739;179;628430;-54
2022/08/02 12:27:20;;;;;;;4.77;4.17;;;;;;;;;;770466;179;625974;-54
2022/08/02 12:29:47;;;;;;;5.30;4.70;;;;;;;;;;773836;183;618133;-54
2022/08/02 12:32:12;;;;;;;6.20;4.57;;;;;;;;;;774301;179;627624;-54
2022/08/02 12:34:38;;;;;;;5.53;4.65;;;;;;;;;;777332;179;1229163;-54
2022/08/02 12:37:04;;;;;;;6.30;4.87;;;;;;;;;;772956;179;628573;-54
2022/08/02 12:39:32;;;;;;;5.30;4.40;;;;;;;;;;772718;179;640073;-54
2022/08/02 12:41:58;;;;;;;5.50;4.47;;;;;;;;;;771419;181;628152;-54
2022/08/02 12:44:24;;;;;;;5.10;4.33;;;;;;;;;;771521;181;631197;-54
2022/08/02 12:46:55;;;;;;;4.77;4.10;;;;;;;;;;766548;181;619463;-54
2022/08/02 12:49:21;;;;;;;4.87;4.07;;;;;;;;;;768416;181;627026;-54
2022/08/02 12:51:47;;;;;;;6.37;3.50;;;;;;;;;;768601;181;627522;-54
2022/08/02 12:54:13;;;;;;;4.47;4.00;;;;;;;;;;783670;178;625754;-54
2022/08/02 12:56:39;;;;;;;5.20;4.07;;;;;;;;;;776202;178;632653;-53
2022/08/02 12:59:05;;;;;;;7.60;4.63;;;;;;;;;;785658;177;625041;-54
2022/08/02 13:01:30;;;;;;;5.07;4.20;;;;;;;;;;791814;179;622385;-54
2022/08/02 13:03:56;;;;;;;4.77;3.80;;;;;;;;;;770495;179;627511;-54
2022/08/02 13:06:22;;;;;;;3.83;3.00;;;;;;;;;;782435;178;635972;-54
2022/08/02 13:08:48;;;;;;;9.23;3.13;;;;;;;;;;783668;179;628830;-54
2022/08/02 13:11:14;;;;;;;4.20;3.40;;;;;;;;;;786674;179;635864;-54
2022/08/02 13:13:40;;;;;;;7.23;3.07;;;;;;;;;;771111;179;631228;-54
2022/08/02 13:16:07;;;;;;;4.93;3.70;;;;;;;;;;764491;183;630073;-53
2022/08/02 13:18:31;;;;;;;4.93;3.27;;;;;;;;;;783688;178;629175;-54
2022/08/02 13:20:57;;;;;;;8.30;3.50;;;;;;;;;;784783;177;658860;-54
2022/08/02 13:23:24;;;;;;;5.43;3.40;;;;;;;;;;765870;182;631363;-54
2022/08/02 13:25:50;;;;;;;5.47;3.33;;;;;;;;;;769891;182;628753;-55
2022/08/02 13:28:16;;;;;;;3.30;2.50;;;;;;;;;;769647;181;626130;-54
2022/08/02 13:30:41;;;;;;;4.10;2.93;;;;;;;;;;769531;181;638272;-54
2022/08/02 13:33:07;;;;;;;6.60;3.33;;;;;;;;;;768441;182;629329;-54
2022/08/02 13:35:33;;;;;;;3.27;2.70;;;;;;;;;;773764;181;633669;-54
2022/08/02 13:38:03;;;;;;;4.50;2.63;;;;;;;;;;769891;181;630244;-54
2022/08/02 13:40:25;;;;;;;6.00;2.80;;;;;;;;;;770271;181;623829;-55
2022/08/02 13:42:51;;;;;;;4.80;3.57;;;;;;;;;;770390;181;629122;-54
2022/08/02 13:45:16;;;;;;;4.37;2.70;;;;;;;;;;775969;179;627747;-54
2022/08/02 13:47:43;;;;;;;4.10;3.17;;;;;;;;;;782641;179;635206;-55
2022/08/02 13:50:08;;;;;;;4.50;3.40;;;;;;;;;;778706;177;630111;-54
2022/08/02 13:52:34;;;;;;;6.07;2.90;;;;;;;;;;774850;179;625356;-54
2022/08/02 13:55:00;;;;;;;6.37;2.70;;;;;;;;;;784771;179;629535;-54
2022/08/02 13:57:26;;;;;;;5.20;2.97;;;;;;;;;;785992;177;625153;-54
2022/08/02 13:59:52;;;;;;;4.30;2.83;;;;;;;;;;783952;178;627827;-54
2022/08/02 14:02:17;;;;;;;3.83;3.07;;;;;;;;;;774932;179;645452;-57
2022/08/02 14:04:43;;;;;;;8.27;2.90;;;;;;;;;;762620;182;634973;-53
2022/08/02 14:07:09;;;;;;;3.70;2.77;;;;;;;;;;779019;180;622759;-54
2022/08/02 14:09:35;;;;;;;4.40;3.33;;;;;;;;;;766677;182;621563;-54
2022/08/02 14:12:01;;;;;;;3.63;3.00;;;;;;;;;;777786;178;628331;-54
2022/08/02 14:14:27;;;;;;;5.00;3.47;;;;;;;;;;784401;179;622439;-55
2022/08/02 14:16:52;;;;;;;4.83;2.70;;;;;;;;;;776872;177;630654;-54
2022/08/02 14:19:20;;;;;;;3.50;2.97;;;;;;;;;;775521;177;616466;-54
2022/08/02 14:21:45;;;;;;;5.65;3.20;;;;;;;;;;772338;181;636199;-55
2022/08/02 14:24:11;;;;;;;3.70;2.90;;;;;;;;;;774072;180;620497;-55